sensor_id;sensor_type;location;lat;lon;timestamp;P1;durP1;ratioP1;P2;durP2;ratioP2
50709;SDS011;37033;49.994;21.992;2023-07-31T00:01:13;3.00;;;2.80;;
50709;SDS011;37033;49.994;21.992;2023-07-31T00:03:44;4.60;;;2.60;;
50709;SDS011;37033;49.994;21.992;2023-07-31T00:06:14;3.50;;;3.20;;
50709;SDS011;37033;49.994;21.992;2023-07-31T00:08:45;3.30;;;2.90;;
50709;SDS011;37033;49.994;21.992;2023-07-31T00:11:16;3.40;;;3.10;;
50709;SDS011;37033;49.994;21.992;2023-07-31T00:13:46;3.20;;;2.90;;
50709;SDS011;37033;49.994;21.992;2023-07-31T00:16:17;3.60;;;3.10;;
50709;SDS011;37033;49.994;21.992;2023-07-31T00:18:48;3.60;;;3.30;;
50709;SDS011;37033;49.994;21.992;2023-07-31T00:21:19;5.00;;;3.00;;
50709;SDS011;37033;49.994;21.992;2023-07-31T00:23:50;6.50;;;2.90;;
50709;SDS011;37033;49.994;21.992;2023-07-31T00:26:20;2.90;;;2.70;;
50709;SDS011;37033;49.994;21.992;2023-07-31T00:28:51;4.50;;;3.00;;
50709;SDS011;37033;49.994;21.992;2023-07-31T00:31:22;3.20;;;2.70;;
50709;SDS011;37033;49.994;21.992;2023-07-31T00:33:53;3.10;;;2.70;;
50709;SDS011;37033;49.994;21.992;2023-07-31T00:36:24;3.40;;;3.10;;
50709;SDS011;37033;49.994;21.992;2023-07-31T00:38:55;5.20;;;3.30;;
50709;SDS011;37033;49.994;21.992;2023-07-31T00:41:26;3.20;;;2.90;;
50709;SDS011;37033;49.994;21.992;2023-07-31T00:43:56;4.50;;;2.90;;
50709;SDS011;37033;49.994;21.992;2023-07-31T00:46:27;3.20;;;2.90;;
50709;SDS011;37033;49.994;21.992;2023-07-31T00:48:58;3.80;;;2.90;;
50709;SDS011;37033;49.994;21.992;2023-07-31T00:51:30;4.50;;;3.80;;
50709;SDS011;37033;49.994;21.992;2023-07-31T00:54:01;3.50;;;3.20;;
50709;SDS011;37033;49.994;21.992;2023-07-31T00:56:34;6.10;;;3.30;;
50709;SDS011;37033;49.994;21.992;2023-07-31T00:59:05;3.20;;;2.90;;
50709;SDS011;37033;49.994;21.992;2023-07-31T01:01:35;5.80;;;3.40;;
50709;SDS011;37033;49.994;21.992;2023-07-31T01:04:07;6.60;;;3.20;;
50709;SDS011;37033;49.994;21.992;2023-07-31T01:06:40;3.90;;;3.50;;
50709;SDS011;37033;49.994;21.992;2023-07-31T01:09:23;5.80;;;3.40;;
50709;SDS011;37033;49.994;21.992;2023-07-31T01:12:05;3.60;;;3.10;;
50709;SDS011;37033;49.994;21.992;2023-07-31T01:14:42;3.50;;;3.10;;
50709;SDS011;37033;49.994;21.992;2023-07-31T01:17:30;7.90;;;3.20;;
50709;SDS011;37033;49.994;21.992;2023-07-31T01:20:02;3.10;;;2.80;;
50709;SDS011;37033;49.994;21.992;2023-07-31T01:26:04;3.90;;;2.70;;
50709;SDS011;37033;49.994;21.992;2023-07-31T01:28:43;7.00;;;3.00;;
50709;SDS011;37033;49.994;21.992;2023-07-31T01:31:22;6.00;;;3.00;;
50709;SDS011;37033;49.994;21.992;2023-07-31T01:33:56;3.50;;;3.20;;
50709;SDS011;37033;49.994;21.992;2023-07-31T01:36:29;3.30;;;2.70;;
50709;SDS011;37033;49.994;21.992;2023-07-31T01:39:00;4.00;;;3.50;;
50709;SDS011;37033;49.994;21.992;2023-07-31T01:41:31;3.70;;;3.10;;
50709;SDS011;37033;49.994;21.992;2023-07-31T01:44:02;4.10;;;3.30;;
50709;SDS011;37033;49.994;21.992;2023-07-31T01:46:34;4.30;;;3.50;;
50709;SDS011;37033;49.994;21.992;2023-07-31T01:49:05;3.80;;;3.20;;
50709;SDS011;37033;49.994;21.992;2023-07-31T01:51:36;3.90;;;2.90;;
50709;SDS011;37033;49.994;21.992;2023-07-31T01:54:06;4.50;;;3.40;;
50709;SDS011;37033;49.994;21.992;2023-07-31T01:56:37;4.00;;;3.60;;
50709;SDS011;37033;49.994;21.992;2023-07-31T01:59:07;5.00;;;3.50;;
50709;SDS011;37033;49.994;21.992;2023-07-31T02:01:38;3.50;;;3.20;;
50709;SDS011;37033;49.994;21.992;2023-07-31T02:04:09;3.90;;;3.50;;
50709;SDS011;37033;49.994;21.992;2023-07-31T02:06:40;3.90;;;3.50;;
50709;SDS011;37033;49.994;21.992;2023-07-31T02:09:10;4.40;;;3.90;;
50709;SDS011;37033;49.994;21.992;2023-07-31T02:11:41;5.10;;;3.50;;
50709;SDS011;37033;49.994;21.992;2023-07-31T02:14:12;3.70;;;3.10;;
50709;SDS011;37033;49.994;21.992;2023-07-31T02:16:42;3.80;;;3.40;;
50709;SDS011;37033;49.994;21.992;2023-07-31T02:19:13;4.90;;;2.90;;
50709;SDS011;37033;49.994;21.992;2023-07-31T02:21:44;3.60;;;2.70;;
50709;SDS011;37033;49.994;21.992;2023-07-31T02:24:14;3.20;;;2.90;;
50709;SDS011;37033;49.994;21.992;2023-07-31T02:26:45;3.10;;;2.80;;
50709;SDS011;37033;49.994;21.992;2023-07-31T02:29:15;3.80;;;2.90;;
50709;SDS011;37033;49.994;21.992;2023-07-31T02:31:46;3.30;;;3.00;;
50709;SDS011;37033;49.994;21.992;2023-07-31T02:34:17;3.60;;;2.70;;
50709;SDS011;37033;49.994;21.992;2023-07-31T02:36:48;5.70;;;2.70;;
50709;SDS011;37033;49.994;21.992;2023-07-31T02:39:18;3.50;;;2.60;;
50709;SDS011;37033;49.994;21.992;2023-07-31T02:41:49;2.80;;;2.40;;
50709;SDS011;37033;49.994;21.992;2023-07-31T02:44:20;2.80;;;2.30;;
50709;SDS011;37033;49.994;21.992;2023-07-31T02:46:50;2.70;;;2.50;;
50709;SDS011;37033;49.994;21.992;2023-07-31T02:49:21;3.90;;;2.80;;
50709;SDS011;37033;49.994;21.992;2023-07-31T02:51:52;3.70;;;2.70;;
50709;SDS011;37033;49.994;21.992;2023-07-31T02:54:22;3.20;;;2.90;;
50709;SDS011;37033;49.994;21.992;2023-07-31T02:56:53;2.70;;;2.40;;
50709;SDS011;37033;49.994;21.992;2023-07-31T02:59:24;4.00;;;2.50;;
50709;SDS011;37033;49.994;21.992;2023-07-31T03:01:54;4.80;;;2.60;;
50709;SDS011;37033;49.994;21.992;2023-07-31T03:04:25;3.10;;;2.80;;
50709;SDS011;37033;49.994;21.992;2023-07-31T03:06:56;4.70;;;2.60;;
50709;SDS011;37033;49.994;21.992;2023-07-31T03:09:26;4.50;;;3.30;;
50709;SDS011;37033;49.994;21.992;2023-07-31T03:11:57;4.50;;;2.60;;
50709;SDS011;37033;49.994;21.992;2023-07-31T03:14:28;4.10;;;2.90;;
50709;SDS011;37033;49.994;21.992;2023-07-31T03:16:58;5.90;;;3.10;;
50709;SDS011;37033;49.994;21.992;2023-07-31T03:19:31;3.40;;;3.10;;
50709;SDS011;37033;49.994;21.992;2023-07-31T03:22:02;3.30;;;3.00;;
50709;SDS011;37033;49.994;21.992;2023-07-31T03:24:33;4.00;;;3.20;;
50709;SDS011;37033;49.994;21.992;2023-07-31T03:27:05;6.00;;;2.80;;
50709;SDS011;37033;49.994;21.992;2023-07-31T03:29:36;5.50;;;3.00;;
50709;SDS011;37033;49.994;21.992;2023-07-31T03:32:07;3.90;;;3.00;;
50709;SDS011;37033;49.994;21.992;2023-07-31T03:34:38;5.30;;;2.80;;
50709;SDS011;37033;49.994;21.992;2023-07-31T03:37:08;5.00;;;3.20;;
50709;SDS011;37033;49.994;21.992;2023-07-31T03:39:39;6.00;;;3.30;;
50709;SDS011;37033;49.994;21.992;2023-07-31T03:42:09;5.40;;;3.20;;
50709;SDS011;37033;49.994;21.992;2023-07-31T03:44:40;8.00;;;3.60;;
50709;SDS011;37033;49.994;21.992;2023-07-31T03:47:11;6.20;;;3.10;;
50709;SDS011;37033;49.994;21.992;2023-07-31T03:49:41;7.10;;;4.20;;
50709;SDS011;37033;49.994;21.992;2023-07-31T03:52:12;6.70;;;3.40;;
50709;SDS011;37033;49.994;21.992;2023-07-31T03:54:43;4.70;;;3.60;;
50709;SDS011;37033;49.994;21.992;2023-07-31T03:57:13;6.00;;;3.30;;
50709;SDS011;37033;49.994;21.992;2023-07-31T03:59:44;5.80;;;3.30;;
50709;SDS011;37033;49.994;21.992;2023-07-31T04:02:15;5.60;;;3.50;;
50709;SDS011;37033;49.994;21.992;2023-07-31T04:04:46;4.10;;;3.20;;
50709;SDS011;37033;49.994;21.992;2023-07-31T04:07:17;10.30;;;3.50;;
50709;SDS011;37033;49.994;21.992;2023-07-31T04:09:47;5.00;;;3.70;;
50709;SDS011;37033;49.994;21.992;2023-07-31T04:12:18;3.90;;;3.40;;
50709;SDS011;37033;49.994;21.992;2023-07-31T04:14:49;6.60;;;3.10;;
50709;SDS011;37033;49.994;21.992;2023-07-31T04:17:20;4.60;;;2.80;;
50709;SDS011;37033;49.994;21.992;2023-07-31T04:19:51;5.20;;;3.20;;
50709;SDS011;37033;49.994;21.992;2023-07-31T04:22:21;5.40;;;3.40;;
50709;SDS011;37033;49.994;21.992;2023-07-31T04:24:52;4.30;;;3.40;;
50709;SDS011;37033;49.994;21.992;2023-07-31T04:27:23;4.40;;;3.30;;
50709;SDS011;37033;49.994;21.992;2023-07-31T04:29:53;4.20;;;3.60;;
50709;SDS011;37033;49.994;21.992;2023-07-31T04:32:24;4.60;;;3.50;;
50709;SDS011;37033;49.994;21.992;2023-07-31T04:34:55;4.60;;;3.10;;
50709;SDS011;37033;49.994;21.992;2023-07-31T04:37:25;6.30;;;3.60;;
50709;SDS011;37033;49.994;21.992;2023-07-31T04:39:56;4.90;;;3.60;;
50709;SDS011;37033;49.994;21.992;2023-07-31T04:42:30;3.70;;;3.30;;
50709;SDS011;37033;49.994;21.992;2023-07-31T04:45:02;3.80;;;3.20;;
50709;SDS011;37033;49.994;21.992;2023-07-31T04:47:34;4.20;;;3.80;;
50709;SDS011;37033;49.994;21.992;2023-07-31T04:50:06;3.70;;;3.10;;
50709;SDS011;37033;49.994;21.992;2023-07-31T04:52:38;3.70;;;3.30;;
50709;SDS011;37033;49.994;21.992;2023-07-31T04:55:09;2.60;;;2.40;;
50709;SDS011;37033;49.994;21.992;2023-07-31T04:57:40;3.00;;;2.70;;
50709;SDS011;37033;49.994;21.992;2023-07-31T05:00:11;3.30;;;2.90;;
50709;SDS011;37033;49.994;21.992;2023-07-31T05:02:42;4.10;;;3.00;;
50709;SDS011;37033;49.994;21.992;2023-07-31T05:05:13;5.30;;;3.00;;
50709;SDS011;37033;49.994;21.992;2023-07-31T05:07:44;6.00;;;2.90;;
50709;SDS011;37033;49.994;21.992;2023-07-31T05:10:15;4.00;;;2.60;;
50709;SDS011;37033;49.994;21.992;2023-07-31T05:12:46;4.40;;;2.90;;
50709;SDS011;37033;49.994;21.992;2023-07-31T05:15:16;3.10;;;2.40;;
50709;SDS011;37033;49.994;21.992;2023-07-31T05:17:47;3.50;;;2.30;;
50709;SDS011;37033;49.994;21.992;2023-07-31T05:20:18;3.20;;;2.40;;
50709;SDS011;37033;49.994;21.992;2023-07-31T05:22:49;2.90;;;2.50;;
50709;SDS011;37033;49.994;21.992;2023-07-31T05:25:20;2.70;;;2.40;;
50709;SDS011;37033;49.994;21.992;2023-07-31T05:27:51;2.60;;;2.40;;
50709;SDS011;37033;49.994;21.992;2023-07-31T05:30:22;3.70;;;2.60;;
50709;SDS011;37033;49.994;21.992;2023-07-31T05:32:52;4.10;;;2.30;;
50709;SDS011;37033;49.994;21.992;2023-07-31T05:35:23;2.60;;;2.10;;
50709;SDS011;37033;49.994;21.992;2023-07-31T05:37:54;2.70;;;2.30;;
50709;SDS011;37033;49.994;21.992;2023-07-31T05:40:24;5.10;;;2.50;;
50709;SDS011;37033;49.994;21.992;2023-07-31T05:42:55;4.10;;;2.60;;
50709;SDS011;37033;49.994;21.992;2023-07-31T05:45:26;2.90;;;2.60;;
50709;SDS011;37033;49.994;21.992;2023-07-31T05:47:57;3.60;;;2.90;;
50709;SDS011;37033;49.994;21.992;2023-07-31T05:50:27;4.80;;;2.80;;
50709;SDS011;37033;49.994;21.992;2023-07-31T05:52:58;3.10;;;2.80;;
50709;SDS011;37033;49.994;21.992;2023-07-31T05:55:29;3.80;;;3.40;;
50709;SDS011;37033;49.994;21.992;2023-07-31T05:58:00;4.00;;;2.80;;
50709;SDS011;37033;49.994;21.992;2023-07-31T06:00:31;2.80;;;2.60;;
50709;SDS011;37033;49.994;21.992;2023-07-31T06:03:01;3.30;;;2.60;;
50709;SDS011;37033;49.994;21.992;2023-07-31T06:05:32;6.10;;;3.00;;
50709;SDS011;37033;49.994;21.992;2023-07-31T06:08:04;4.50;;;3.40;;
50709;SDS011;37033;49.994;21.992;2023-07-31T06:10:34;3.30;;;2.90;;
50709;SDS011;37033;49.994;21.992;2023-07-31T06:13:05;3.90;;;2.90;;
50709;SDS011;37033;49.994;21.992;2023-07-31T06:15:37;4.20;;;3.00;;
50709;SDS011;37033;49.994;21.992;2023-07-31T06:18:10;4.10;;;2.30;;
50709;SDS011;37033;49.994;21.992;2023-07-31T06:20:41;3.70;;;3.40;;
50709;SDS011;37033;49.994;21.992;2023-07-31T06:23:12;4.40;;;3.10;;
50709;SDS011;37033;49.994;21.992;2023-07-31T06:25:43;3.20;;;2.70;;
50709;SDS011;37033;49.994;21.992;2023-07-31T06:28:14;7.50;;;2.70;;
50709;SDS011;37033;49.994;21.992;2023-07-31T06:30:45;3.20;;;2.70;;
50709;SDS011;37033;49.994;21.992;2023-07-31T06:33:16;5.40;;;2.90;;
50709;SDS011;37033;49.994;21.992;2023-07-31T06:35:46;4.20;;;2.50;;
50709;SDS011;37033;49.994;21.992;2023-07-31T06:38:18;3.30;;;2.90;;
50709;SDS011;37033;49.994;21.992;2023-07-31T06:40:50;3.50;;;3.20;;
50709;SDS011;37033;49.994;21.992;2023-07-31T06:43:21;5.50;;;2.70;;
50709;SDS011;37033;49.994;21.992;2023-07-31T06:45:52;4.50;;;2.70;;
50709;SDS011;37033;49.994;21.992;2023-07-31T06:48:23;5.20;;;2.80;;
50709;SDS011;37033;49.994;21.992;2023-07-31T06:50:54;4.20;;;2.50;;
50709;SDS011;37033;49.994;21.992;2023-07-31T06:53:25;3.20;;;2.90;;
50709;SDS011;37033;49.994;21.992;2023-07-31T06:55:55;4.30;;;2.90;;
50709;SDS011;37033;49.994;21.992;2023-07-31T06:58:26;8.80;;;3.30;;
50709;SDS011;37033;49.994;21.992;2023-07-31T07:00:57;4.10;;;3.00;;
50709;SDS011;37033;49.994;21.992;2023-07-31T07:03:27;6.80;;;3.20;;
50709;SDS011;37033;49.994;21.992;2023-07-31T07:05:58;4.70;;;2.80;;
50709;SDS011;37033;49.994;21.992;2023-07-31T07:08:29;3.40;;;3.10;;
50709;SDS011;37033;49.994;21.992;2023-07-31T07:11:00;6.10;;;3.30;;
50709;SDS011;37033;49.994;21.992;2023-07-31T07:13:31;4.40;;;3.20;;
50709;SDS011;37033;49.994;21.992;2023-07-31T07:16:02;4.40;;;3.20;;
50709;SDS011;37033;49.994;21.992;2023-07-31T07:18:33;3.60;;;3.30;;
50709;SDS011;37033;49.994;21.992;2023-07-31T07:21:03;3.60;;;3.00;;
50709;SDS011;37033;49.994;21.992;2023-07-31T07:23:34;6.60;;;3.10;;
50709;SDS011;37033;49.994;21.992;2023-07-31T07:26:05;3.00;;;2.70;;
50709;SDS011;37033;49.994;21.992;2023-07-31T07:28:36;4.40;;;3.30;;
50709;SDS011;37033;49.994;21.992;2023-07-31T07:31:06;4.30;;;3.20;;
50709;SDS011;37033;49.994;21.992;2023-07-31T07:33:37;2.70;;;2.30;;
50709;SDS011;37033;49.994;21.992;2023-07-31T07:36:08;3.00;;;2.80;;
50709;SDS011;37033;49.994;21.992;2023-07-31T07:38:40;3.50;;;3.20;;
50709;SDS011;37033;49.994;21.992;2023-07-31T07:41:11;3.30;;;2.70;;
50709;SDS011;37033;49.994;21.992;2023-07-31T07:43:42;3.90;;;2.70;;
50709;SDS011;37033;49.994;21.992;2023-07-31T07:46:13;3.90;;;2.80;;
50709;SDS011;37033;49.994;21.992;2023-07-31T07:48:43;2.60;;;2.40;;
50709;SDS011;37033;49.994;21.992;2023-07-31T07:51:14;4.10;;;3.10;;
50709;SDS011;37033;49.994;21.992;2023-07-31T07:53:45;4.30;;;2.40;;
50709;SDS011;37033;49.994;21.992;2023-07-31T07:56:15;4.70;;;2.80;;
50709;SDS011;37033;49.994;21.992;2023-07-31T07:58:49;4.70;;;2.70;;
50709;SDS011;37033;49.994;21.992;2023-07-31T08:01:20;4.20;;;2.90;;
50709;SDS011;37033;49.994;21.992;2023-07-31T08:03:51;3.10;;;2.80;;
50709;SDS011;37033;49.994;21.992;2023-07-31T08:06:22;3.30;;;3.00;;
50709;SDS011;37033;49.994;21.992;2023-07-31T08:08:53;4.70;;;3.40;;
50709;SDS011;37033;49.994;21.992;2023-07-31T08:11:23;6.40;;;3.00;;
50709;SDS011;37033;49.994;21.992;2023-07-31T08:13:54;4.30;;;2.90;;
50709;SDS011;37033;49.994;21.992;2023-07-31T08:16:25;4.10;;;3.00;;
50709;SDS011;37033;49.994;21.992;2023-07-31T08:18:56;3.20;;;2.80;;
50709;SDS011;37033;49.994;21.992;2023-07-31T08:21:26;3.50;;;2.70;;
50709;SDS011;37033;49.994;21.992;2023-07-31T08:23:57;3.80;;;3.40;;
50709;SDS011;37033;49.994;21.992;2023-07-31T08:26:28;3.60;;;2.90;;
50709;SDS011;37033;49.994;21.992;2023-07-31T08:28:59;5.50;;;2.90;;
50709;SDS011;37033;49.994;21.992;2023-07-31T08:31:29;2.90;;;2.60;;
50709;SDS011;37033;49.994;21.992;2023-07-31T08:34:00;3.70;;;2.70;;
50709;SDS011;37033;49.994;21.992;2023-07-31T08:36:31;3.30;;;3.00;;
50709;SDS011;37033;49.994;21.992;2023-07-31T08:39:02;10.70;;;3.00;;
50709;SDS011;37033;49.994;21.992;2023-07-31T08:41:33;3.20;;;2.90;;
50709;SDS011;37033;49.994;21.992;2023-07-31T08:44:08;5.80;;;3.10;;
50709;SDS011;37033;49.994;21.992;2023-07-31T08:46:39;4.80;;;3.70;;
50709;SDS011;37033;49.994;21.992;2023-07-31T08:49:10;3.30;;;3.00;;
50709;SDS011;37033;49.994;21.992;2023-07-31T08:51:42;3.60;;;3.10;;
50709;SDS011;37033;49.994;21.992;2023-07-31T08:54:15;2.50;;;2.30;;
50709;SDS011;37033;49.994;21.992;2023-07-31T08:56:46;2.90;;;2.20;;
50709;SDS011;37033;49.994;21.992;2023-07-31T08:59:18;2.50;;;2.00;;
50709;SDS011;37033;49.994;21.992;2023-07-31T09:01:52;4.20;;;2.10;;
50709;SDS011;37033;49.994;21.992;2023-07-31T09:04:26;2.40;;;2.20;;
50709;SDS011;37033;49.994;21.992;2023-07-31T09:07:00;2.40;;;2.20;;
50709;SDS011;37033;49.994;21.992;2023-07-31T09:09:32;4.60;;;2.60;;
50709;SDS011;37033;49.994;21.992;2023-07-31T09:12:04;1.90;;;1.70;;
50709;SDS011;37033;49.994;21.992;2023-07-31T09:14:36;2.20;;;2.00;;
50709;SDS011;37033;49.994;21.992;2023-07-31T09:17:08;2.20;;;2.00;;
50709;SDS011;37033;49.994;21.992;2023-07-31T09:19:39;2.00;;;1.70;;
50709;SDS011;37033;49.994;21.992;2023-07-31T09:22:10;4.30;;;1.80;;
50709;SDS011;37033;49.994;21.992;2023-07-31T09:24:41;2.30;;;2.10;;
50709;SDS011;37033;49.994;21.992;2023-07-31T09:27:11;2.40;;;2.20;;
50709;SDS011;37033;49.994;21.992;2023-07-31T09:29:42;3.30;;;2.80;;
50709;SDS011;37033;49.994;21.992;2023-07-31T09:32:16;3.20;;;2.20;;
50709;SDS011;37033;49.994;21.992;2023-07-31T09:34:47;2.40;;;2.00;;
50709;SDS011;37033;49.994;21.992;2023-07-31T09:37:18;2.30;;;2.10;;
50709;SDS011;37033;49.994;21.992;2023-07-31T09:39:49;2.30;;;2.10;;
50709;SDS011;37033;49.994;21.992;2023-07-31T09:42:27;4.10;;;2.40;;
50709;SDS011;37033;49.994;21.992;2023-07-31T09:45:08;3.90;;;2.20;;
50709;SDS011;37033;49.994;21.992;2023-07-31T09:47:40;5.40;;;3.10;;
50709;SDS011;37033;49.994;21.992;2023-07-31T09:50:17;2.90;;;2.70;;
50709;SDS011;37033;49.994;21.992;2023-07-31T09:52:49;2.90;;;2.70;;
50709;SDS011;37033;49.994;21.992;2023-07-31T09:55:21;3.70;;;3.40;;
50709;SDS011;37033;49.994;21.992;2023-07-31T09:57:53;3.80;;;3.10;;
50709;SDS011;37033;49.994;21.992;2023-07-31T10:00:27;2.90;;;2.70;;
50709;SDS011;37033;49.994;21.992;2023-07-31T10:02:59;5.30;;;3.10;;
50709;SDS011;37033;49.994;21.992;2023-07-31T10:05:34;4.00;;;3.30;;
50709;SDS011;37033;49.994;21.992;2023-07-31T10:08:06;3.60;;;3.30;;
50709;SDS011;37033;49.994;21.992;2023-07-31T10:10:38;3.80;;;3.50;;
50709;SDS011;37033;49.994;21.992;2023-07-31T10:13:11;5.50;;;5.00;;
50709;SDS011;37033;49.994;21.992;2023-07-31T10:15:43;4.60;;;4.20;;
50709;SDS011;37033;49.994;21.992;2023-07-31T10:18:14;4.50;;;4.20;;
50709;SDS011;37033;49.994;21.992;2023-07-31T10:20:49;4.90;;;3.80;;
50709;SDS011;37033;49.994;21.992;2023-07-31T10:23:20;4.70;;;4.30;;
50709;SDS011;37033;49.994;21.992;2023-07-31T10:25:53;4.20;;;3.90;;
50709;SDS011;37033;49.994;21.992;2023-07-31T10:28:26;3.50;;;3.30;;
50709;SDS011;37033;49.994;21.992;2023-07-31T10:30:58;4.20;;;3.00;;
50709;SDS011;37033;49.994;21.992;2023-07-31T10:33:30;5.00;;;3.00;;
50709;SDS011;37033;49.994;21.992;2023-07-31T10:36:14;3.40;;;3.10;;
50709;SDS011;37033;49.994;21.992;2023-07-31T10:38:49;3.50;;;2.90;;
50709;SDS011;37033;49.994;21.992;2023-07-31T10:41:20;4.30;;;3.40;;
50709;SDS011;37033;49.994;21.992;2023-07-31T10:43:59;2.80;;;2.60;;
50709;SDS011;37033;49.994;21.992;2023-07-31T10:46:31;3.20;;;2.90;;
50709;SDS011;37033;49.994;21.992;2023-07-31T10:49:03;4.40;;;3.30;;
50709;SDS011;37033;49.994;21.992;2023-07-31T10:51:34;2.80;;;2.60;;
50709;SDS011;37033;49.994;21.992;2023-07-31T10:54:22;2.70;;;2.40;;
50709;SDS011;37033;49.994;21.992;2023-07-31T10:56:53;2.90;;;2.40;;
50709;SDS011;37033;49.994;21.992;2023-07-31T10:59:27;2.70;;;2.30;;
50709;SDS011;37033;49.994;21.992;2023-07-31T11:02:05;2.40;;;2.20;;
50709;SDS011;37033;49.994;21.992;2023-07-31T11:05:08;5.20;;;2.20;;
50709;SDS011;37033;49.994;21.992;2023-07-31T11:07:48;2.40;;;1.90;;
50709;SDS011;37033;49.994;21.992;2023-07-31T11:10:20;2.00;;;1.70;;
50709;SDS011;37033;49.994;21.992;2023-07-31T11:12:53;2.20;;;2.00;;
50709;SDS011;37033;49.994;21.992;2023-07-31T11:15:24;2.50;;;2.00;;
50709;SDS011;37033;49.994;21.992;2023-07-31T11:17:57;4.40;;;2.20;;
50709;SDS011;37033;49.994;21.992;2023-07-31T11:23:01;3.10;;;2.60;;
50709;SDS011;37033;49.994;21.992;2023-07-31T11:28:06;2.30;;;1.90;;
50709;SDS011;37033;49.994;21.992;2023-07-31T11:30:38;3.60;;;1.90;;
50709;SDS011;37033;49.994;21.992;2023-07-31T11:33:11;1.80;;;1.70;;
50709;SDS011;37033;49.994;21.992;2023-07-31T11:35:43;1.90;;;1.80;;
50709;SDS011;37033;49.994;21.992;2023-07-31T11:38:22;7.00;;;2.10;;
50709;SDS011;37033;49.994;21.992;2023-07-31T11:40:55;2.10;;;1.90;;
50709;SDS011;37033;49.994;21.992;2023-07-31T11:43:27;2.50;;;1.80;;
50709;SDS011;37033;49.994;21.992;2023-07-31T11:45:58;3.40;;;1.70;;
50709;SDS011;37033;49.994;21.992;2023-07-31T11:48:31;1.50;;;1.40;;
50709;SDS011;37033;49.994;21.992;2023-07-31T11:51:04;3.40;;;1.80;;
50709;SDS011;37033;49.994;21.992;2023-07-31T11:53:39;2.00;;;1.70;;
50709;SDS011;37033;49.994;21.992;2023-07-31T11:56:13;2.20;;;1.80;;
50709;SDS011;37033;49.994;21.992;2023-07-31T11:58:46;2.00;;;1.80;;
50709;SDS011;37033;49.994;21.992;2023-07-31T12:01:19;1.70;;;1.60;;
50709;SDS011;37033;49.994;21.992;2023-07-31T12:03:51;2.40;;;1.90;;
50709;SDS011;37033;49.994;21.992;2023-07-31T12:06:23;2.00;;;1.90;;
50709;SDS011;37033;49.994;21.992;2023-07-31T12:09:04;6.30;;;2.60;;
50709;SDS011;37033;49.994;21.992;2023-07-31T12:11:43;2.30;;;1.60;;
50709;SDS011;37033;49.994;21.992;2023-07-31T12:14:24;1.90;;;1.50;;
50709;SDS011;37033;49.994;21.992;2023-07-31T12:16:56;2.00;;;1.40;;
50709;SDS011;37033;49.994;21.992;2023-07-31T12:19:28;3.40;;;1.70;;
50709;SDS011;37033;49.994;21.992;2023-07-31T12:22:00;2.20;;;1.70;;
50709;SDS011;37033;49.994;21.992;2023-07-31T12:24:31;3.70;;;2.20;;
50709;SDS011;37033;49.994;21.992;2023-07-31T12:27:09;3.10;;;1.90;;
50709;SDS011;37033;49.994;21.992;2023-07-31T12:29:42;4.20;;;2.00;;
50709;SDS011;37033;49.994;21.992;2023-07-31T12:32:20;2.80;;;1.70;;
50709;SDS011;37033;49.994;21.992;2023-07-31T12:34:52;2.00;;;1.80;;
50709;SDS011;37033;49.994;21.992;2023-07-31T12:37:23;1.60;;;1.50;;
50709;SDS011;37033;49.994;21.992;2023-07-31T12:39:54;1.70;;;1.60;;
50709;SDS011;37033;49.994;21.992;2023-07-31T12:42:30;2.00;;;1.60;;
50709;SDS011;37033;49.994;21.992;2023-07-31T12:45:01;5.30;;;2.00;;
50709;SDS011;37033;49.994;21.992;2023-07-31T12:47:32;2.60;;;1.60;;
50709;SDS011;37033;49.994;21.992;2023-07-31T12:50:03;1.30;;;1.20;;
50709;SDS011;37033;49.994;21.992;2023-07-31T12:52:35;5.20;;;1.60;;
50709;SDS011;37033;49.994;21.992;2023-07-31T12:55:08;3.10;;;1.20;;
50709;SDS011;37033;49.994;21.992;2023-07-31T12:57:39;1.80;;;1.60;;
50709;SDS011;37033;49.994;21.992;2023-07-31T13:00:11;3.10;;;1.50;;
50709;SDS011;37033;49.994;21.992;2023-07-31T13:02:43;1.90;;;1.50;;
50709;SDS011;37033;49.994;21.992;2023-07-31T13:05:14;4.00;;;2.20;;
50709;SDS011;37033;49.994;21.992;2023-07-31T13:07:48;2.60;;;1.60;;
50709;SDS011;37033;49.994;21.992;2023-07-31T13:10:18;2.70;;;1.50;;
50709;SDS011;37033;49.994;21.992;2023-07-31T13:12:51;3.00;;;2.20;;
50709;SDS011;37033;49.994;21.992;2023-07-31T13:15:21;4.20;;;2.10;;
50709;SDS011;37033;49.994;21.992;2023-07-31T13:17:52;1.90;;;1.50;;
50709;SDS011;37033;49.994;21.992;2023-07-31T13:20:23;2.60;;;1.40;;
50709;SDS011;37033;49.994;21.992;2023-07-31T13:22:55;2.50;;;1.60;;
50709;SDS011;37033;49.994;21.992;2023-07-31T13:25:26;2.80;;;1.40;;
50709;SDS011;37033;49.994;21.992;2023-07-31T13:27:56;1.60;;;1.50;;
50709;SDS011;37033;49.994;21.992;2023-07-31T13:30:27;4.10;;;1.70;;
50709;SDS011;37033;49.994;21.992;2023-07-31T13:32:58;2.90;;;1.80;;
50709;SDS011;37033;49.994;21.992;2023-07-31T13:35:28;2.30;;;2.00;;
50709;SDS011;37033;49.994;21.992;2023-07-31T13:38:00;2.80;;;1.90;;
50709;SDS011;37033;49.994;21.992;2023-07-31T13:40:31;2.70;;;1.90;;
50709;SDS011;37033;49.994;21.992;2023-07-31T13:43:02;2.00;;;1.60;;
50709;SDS011;37033;49.994;21.992;2023-07-31T13:45:33;5.70;;;3.10;;
50709;SDS011;37033;49.994;21.992;2023-07-31T13:48:04;5.30;;;1.80;;
50709;SDS011;37033;49.994;21.992;2023-07-31T13:50:34;4.50;;;1.90;;
50709;SDS011;37033;49.994;21.992;2023-07-31T13:53:05;4.20;;;2.80;;
50709;SDS011;37033;49.994;21.992;2023-07-31T13:55:36;2.90;;;1.90;;
50709;SDS011;37033;49.994;21.992;2023-07-31T13:58:07;3.40;;;2.00;;
50709;SDS011;37033;49.994;21.992;2023-07-31T14:00:37;2.70;;;2.00;;
50709;SDS011;37033;49.994;21.992;2023-07-31T14:03:08;1.70;;;1.60;;
50709;SDS011;37033;49.994;21.992;2023-07-31T14:05:39;1.50;;;1.40;;
50709;SDS011;37033;49.994;21.992;2023-07-31T14:08:10;3.40;;;1.80;;
50709;SDS011;37033;49.994;21.992;2023-07-31T14:10:41;2.00;;;1.60;;
50709;SDS011;37033;49.994;21.992;2023-07-31T14:13:11;1.80;;;1.50;;
50709;SDS011;37033;49.994;21.992;2023-07-31T14:15:42;2.00;;;1.50;;
50709;SDS011;37033;49.994;21.992;2023-07-31T14:18:13;2.50;;;1.50;;
50709;SDS011;37033;49.994;21.992;2023-07-31T14:20:43;1.90;;;1.10;;
50709;SDS011;37033;49.994;21.992;2023-07-31T14:23:14;1.50;;;1.30;;
50709;SDS011;37033;49.994;21.992;2023-07-31T14:25:45;2.20;;;1.50;;
50709;SDS011;37033;49.994;21.992;2023-07-31T14:28:16;1.60;;;1.50;;
50709;SDS011;37033;49.994;21.992;2023-07-31T14:30:47;2.40;;;1.40;;
50709;SDS011;37033;49.994;21.992;2023-07-31T14:33:17;3.00;;;1.40;;
50709;SDS011;37033;49.994;21.992;2023-07-31T14:35:48;2.20;;;1.30;;
50709;SDS011;37033;49.994;21.992;2023-07-31T14:38:19;2.00;;;1.80;;
50709;SDS011;37033;49.994;21.992;2023-07-31T14:40:51;2.20;;;1.70;;
50709;SDS011;37033;49.994;21.992;2023-07-31T14:43:22;3.50;;;1.20;;
50709;SDS011;37033;49.994;21.992;2023-07-31T14:45:52;3.70;;;2.00;;
50709;SDS011;37033;49.994;21.992;2023-07-31T14:48:25;2.10;;;1.60;;
50709;SDS011;37033;49.994;21.992;2023-07-31T14:50:57;1.80;;;1.10;;
50709;SDS011;37033;49.994;21.992;2023-07-31T14:53:27;3.10;;;1.70;;
50709;SDS011;37033;49.994;21.992;2023-07-31T14:55:58;1.90;;;1.10;;
50709;SDS011;37033;49.994;21.992;2023-07-31T14:58:28;1.80;;;1.60;;
50709;SDS011;37033;49.994;21.992;2023-07-31T15:00:59;3.10;;;1.40;;
50709;SDS011;37033;49.994;21.992;2023-07-31T15:03:30;2.20;;;1.40;;
50709;SDS011;37033;49.994;21.992;2023-07-31T15:06:01;2.90;;;1.30;;
50709;SDS011;37033;49.994;21.992;2023-07-31T15:08:34;1.40;;;1.20;;